Time;durP1;ratioP1;P1;durP2;ratioP2;P2;SDS_P1;SDS_P2;PMS_P1;PMS_P2;Temp;Humidity;BMP_temperature;BMP_pressure;BME280_temperature;BME280_humidity;BME280_pressure;Samples;Min_cycle;Max_cycle;Signal;HPM_P1;HPM_P2
2022/03/28 00:00:09;;;;;;;12.15;7.20;;;;;;;;;;5099673;28;20027;-77
2022/03/28 00:02:35;;;;;;;13.50;7.40;;;;;;;;;;5080668;28;20115;-77
2022/03/28 00:05:00;;;;;;;13.02;7.60;;;;;;;;;;5080243;28;20027;-77
2022/03/28 00:07:26;;;;;;;12.82;6.88;;;;;;;;;;5098470;28;20020;-77
2022/03/28 00:09:51;;;;;;;13.30;6.97;;;;;;;;;;5097885;28;20391;-77
2022/03/28 00:12:16;;;;;;;11.65;6.55;;;;;;;;;;5097869;28;20023;-77
2022/03/28 00:14:41;;;;;;;12.88;6.60;;;;;;;;;;5098291;28;20052;-77
2022/03/28 00:17:07;;;;;;;14.00;7.27;;;;;;;;;;5097565;28;20385;-77
2022/03/28 00:19:32;;;;;;;11.65;6.25;;;;;;;;;;5098166;28;20618;-77
2022/03/28 00:21:57;;;;;;;12.27;7.03;;;;;;;;;;5097428;28;20031;-77
2022/03/28 00:24:22;;;;;;;10.23;6.15;;;;;;;;;;5079460;28;20081;-77
2022/03/28 00:26:48;;;;;;;10.48;6.28;;;;;;;;;;5079024;28;20515;-76
2022/03/28 00:29:13;;;;;;;12.98;6.35;;;;;;;;;;5078720;28;20397;-76
2022/03/28 00:31:38;;;;;;;13.80;6.63;;;;;;;;;;5096805;28;20377;-77
2022/03/28 00:34:03;;;;;;;10.02;6.47;;;;;;;;;;5096449;28;20020;-76
2022/03/28 00:36:29;;;;;;;14.98;6.30;;;;;;;;;;5096493;28;20088;-76
2022/03/28 00:38:54;;;;;;;12.53;6.57;;;;;;;;;;5096022;28;20020;-76
2022/03/28 00:41:19;;;;;;;10.63;6.32;;;;;;;;;;5096164;28;20265;-77
2022/03/28 00:43:56;;;;;;;10.43;5.95;;;;;;;;;;5097132;28;20107;-76
2022/03/28 00:46:22;;;;;;;9.80;5.70;;;;;;;;;;5096086;28;20023;-76
2022/03/28 00:48:48;;;;;;;11.43;6.03;;;;;;;;;;5078990;28;20020;-76
2022/03/28 00:51:16;;;;;;;11.57;6.20;;;;;;;;;;5079431;28;20110;-76
2022/03/28 00:53:42;;;;;;;11.02;6.20;;;;;;;;;;5098157;28;20023;-77
2022/03/28 00:56:08;;;;;;;10.57;6.38;;;;;;;;;;5080520;28;20045;-78
2022/03/28 00:58:33;;;;;;;16.30;6.00;;;;;;;;;;5098681;28;20048;-77
2022/03/28 01:00:59;;;;;;;9.38;5.30;;;;;;;;;;5097987;28;20059;-77
2022/03/28 01:03:24;;;;;;;9.75;6.07;;;;;;;;;;5097809;28;20455;-76
2022/03/28 01:05:49;;;;;;;12.60;6.20;;;;;;;;;;5097687;28;20081;-76
2022/03/28 01:08:15;;;;;;;10.25;6.32;;;;;;;;;;5097180;28;20625;-77
2022/03/28 01:10:42;;;;;;;10.85;6.13;;;;;;;;;;5096306;28;20084;-77
2022/03/28 01:13:08;;;;;;;12.15;5.60;;;;;;;;;;5077912;28;20027;-77
2022/03/28 01:15:33;;;;;;;15.57;6.57;;;;;;;;;;5078623;28;20026;-77
2022/03/28 01:18:09;;;;;;;9.87;5.83;;;;;;;;;;5096320;28;20081;-77
2022/03/28 01:20:37;;;;;;;11.40;6.30;;;;;;;;;;5096617;28;20261;-77
2022/03/28 01:23:02;;;;;;;10.38;5.50;;;;;;;;;;5096901;28;20099;-76
2022/03/28 01:25:29;;;;;;;11.82;6.47;;;;;;;;;;5096581;28;20456;-77
2022/03/28 01:27:55;;;;;;;10.52;5.95;;;;;;;;;;5096630;28;20059;-77
2022/03/28 01:30:21;;;;;;;11.60;6.53;;;;;;;;;;5097047;28;20028;-76
2022/03/28 01:32:48;;;;;;;10.50;6.28;;;;;;;;;;5098639;28;20035;-77
2022/03/28 01:35:34;;;;;;;10.52;6.35;;;;;;;;;;5099147;28;20058;-77
2022/03/28 01:38:01;;;;;;;10.73;6.25;;;;;;;;;;5096708;28;20420;-77
2022/03/28 01:40:28;;;;;;;13.60;6.18;;;;;;;;;;5096936;28;20028;-77
2022/03/28 01:42:54;;;;;;;9.43;5.90;;;;;;;;;;5097113;28;20465;-77
2022/03/28 01:45:20;;;;;;;10.13;5.93;;;;;;;;;;5096526;28;20034;-78
2022/03/28 01:47:46;;;;;;;10.95;6.03;;;;;;;;;;5078637;28;20111;-78
2022/03/28 01:50:12;;;;;;;11.07;6.25;;;;;;;;;;5095824;28;20024;-78
2022/03/28 01:52:37;;;;;;;12.98;6.63;;;;;;;;;;5096287;28;20022;-77
2022/03/28 01:55:03;;;;;;;12.07;6.47;;;;;;;;;;5097398;28;20051;-77
2022/03/28 01:57:29;;;;;;;11.43;5.68;;;;;;;;;;5096145;28;20481;-77
2022/03/28 01:59:54;;;;;;;11.93;6.60;;;;;;;;;;5095809;28;20027;-77
2022/03/28 02:02:19;;;;;;;11.07;6.30;;;;;;;;;;5095289;28;20024;-77
2022/03/28 02:04:44;;;;;;;12.47;5.90;;;;;;;;;;5077409;28;20326;-77
2022/03/28 02:07:10;;;;;;;11.70;6.07;;;;;;;;;;5095131;28;20265;-77
2022/03/28 02:09:35;;;;;;;11.48;6.00;;;;;;;;;;5099214;28;20126;-77
2022/03/28 02:12:00;;;;;;;13.73;6.83;;;;;;;;;;5099010;28;20036;-77
2022/03/28 02:14:26;;;;;;;12.70;6.57;;;;;;;;;;5081035;28;20271;-77
2022/03/28 02:16:51;;;;;;;11.18;6.28;;;;;;;;;;5099279;28;20252;-77
2022/03/28 02:19:16;;;;;;;16.40;6.68;;;;;;;;;;5099023;28;20098;-77
2022/03/28 02:21:41;;;;;;;13.18;6.78;;;;;;;;;;5098809;28;20106;-77
2022/03/28 02:24:06;;;;;;;10.40;6.25;;;;;;;;;;5098803;28;20016;-77
2022/03/28 02:26:32;;;;;;;12.00;6.43;;;;;;;;;;5098711;28;20043;-77
2022/03/28 02:28:57;;;;;;;11.75;6.50;;;;;;;;;;5098965;28;20268;-77
2022/03/28 02:31:22;;;;;;;11.50;6.25;;;;;;;;;;5098417;28;20058;-77
2022/03/28 02:33:48;;;;;;;12.43;6.68;;;;;;;;;;5098324;28;20024;-77
2022/03/28 02:36:13;;;;;;;11.73;6.55;;;;;;;;;;5098576;28;20073;-77
2022/03/28 02:38:38;;;;;;;9.73;6.13;;;;;;;;;;5098304;28;20063;-77
2022/03/28 02:41:03;;;;;;;11.40;6.32;;;;;;;;;;5098114;28;20382;-77
2022/03/28 02:43:29;;;;;;;14.18;7.28;;;;;;;;;;5079918;28;20058;-77
2022/03/28 02:45:54;;;;;;;11.45;6.72;;;;;;;;;;5079661;28;20477;-77
2022/03/28 02:48:19;;;;;;;11.73;6.60;;;;;;;;;;5097635;28;20035;-77
2022/03/28 02:50:45;;;;;;;9.57;6.13;;;;;;;;;;5097660;28;20030;-77
2022/03/28 02:53:11;;;;;;;13.65;6.63;;;;;;;;;;5097871;28;20016;-77
2022/03/28 02:55:37;;;;;;;13.45;6.40;;;;;;;;;;5097656;28;20142;-77
2022/03/28 02:58:02;;;;;;;13.00;6.57;;;;;;;;;;5079570;28;20067;-77
2022/03/28 03:00:28;;;;;;;12.32;6.28;;;;;;;;;;5097937;28;20034;-77
2022/03/28 03:02:53;;;;;;;14.23;7.25;;;;;;;;;;5079760;28;20024;-77
2022/03/28 03:05:18;;;;;;;13.25;6.70;;;;;;;;;;5097579;28;20107;-77
2022/03/28 03:07:44;;;;;;;10.37;6.50;;;;;;;;;;5097728;28;20028;-77
2022/03/28 03:10:10;;;;;;;13.47;7.03;;;;;;;;;;5097815;28;20264;-77
2022/03/28 03:12:35;;;;;;;9.82;6.25;;;;;;;;;;5097613;28;20256;-77
2022/03/28 03:15:00;;;;;;;15.30;6.40;;;;;;;;;;5097946;28;20024;-77
2022/03/28 03:17:26;;;;;;;11.48;6.63;;;;;;;;;;5079164;28;20252;-77
2022/03/28 03:19:51;;;;;;;13.25;6.90;;;;;;;;;;5097648;28;20024;-77
2022/03/28 03:22:17;;;;;;;13.52;6.35;;;;;;;;;;5097240;28;20024;-77
2022/03/28 03:24:44;;;;;;;13.68;6.53;;;;;;;;;;5097431;28;20032;-77
2022/03/28 03:27:09;;;;;;;11.25;6.45;;;;;;;;;;5097176;28;20111;-77
2022/03/28 03:29:35;;;;;;;11.05;6.57;;;;;;;;;;5097242;28;20070;-77
2022/03/28 03:32:03;;;;;;;13.23;6.18;;;;;;;;;;5097682;28;20024;-76
2022/03/28 03:34:28;;;;;;;10.32;6.40;;;;;;;;;;5098093;28;20032;-76
2022/03/28 03:36:53;;;;;;;12.77;6.50;;;;;;;;;;5097444;28;20044;-76
2022/03/28 03:39:19;;;;;;;11.55;6.55;;;;;;;;;;5097894;28;20032;-77
2022/03/28 03:41:44;;;;;;;11.13;6.57;;;;;;;;;;5097835;28;20030;-77
2022/03/28 03:44:09;;;;;;;13.30;6.43;;;;;;;;;;5079540;28;20027;-76
2022/03/28 03:46:35;;;;;;;13.98;6.93;;;;;;;;;;5097790;28;20028;-77
2022/03/28 03:49:00;;;;;;;10.88;6.05;;;;;;;;;;5097147;28;20062;-77
2022/03/28 03:51:25;;;;;;;13.70;6.95;;;;;;;;;;5098152;28;20387;-76
2022/03/28 03:53:51;;;;;;;9.77;5.95;;;;;;;;;;5097624;28;20024;-76
2022/03/28 03:56:16;;;;;;;14.27;6.90;;;;;;;;;;5098594;28;20024;-76
2022/03/28 03:58:42;;;;;;;15.38;7.22;;;;;;;;;;5097402;28;20039;-76
2022/03/28 04:01:08;;;;;;;11.45;6.50;;;;;;;;;;5096918;28;20107;-76
2022/03/28 04:03:34;;;;;;;14.35;6.93;;;;;;;;;;5079335;28;20096;-77
2022/03/28 04:05:59;;;;;;;11.77;6.72;;;;;;;;;;5097713;28;20468;-77
2022/03/28 04:08:26;;;;;;;10.95;5.93;;;;;;;;;;5098075;28;20032;-77
2022/03/28 04:10:51;;;;;;;13.93;7.07;;;;;;;;;;5079155;28;20481;-76
2022/03/28 04:13:17;;;;;;;19.30;6.63;;;;;;;;;;5096825;28;20024;-75
2022/03/28 04:15:43;;;;;;;13.10;6.75;;;;;;;;;;5079358;28;20432;-76
2022/03/28 04:18:08;;;;;;;13.60;6.80;;;;;;;;;;5096782;28;20028;-76
2022/03/28 04:20:33;;;;;;;12.48;6.32;;;;;;;;;;5097091;28;20022;-77
2022/03/28 04:22:58;;;;;;;19.48;7.20;;;;;;;;;;5097039;28;20102;-77
2022/03/28 04:25:24;;;;;;;14.27;6.93;;;;;;;;;;5097258;28;20026;-77
2022/03/28 04:27:49;;;;;;;14.30;7.13;;;;;;;;;;5097457;28;20028;-77
2022/03/28 04:30:14;;;;;;;11.57;7.05;;;;;;;;;;5097240;28;20032;-76
2022/03/28 04:32:40;;;;;;;10.45;6.47;;;;;;;;;;5097658;28;20016;-76
2022/03/28 04:35:07;;;;;;;13.02;6.32;;;;;;;;;;5078900;28;20087;-77
2022/03/28 04:37:34;;;;;;;15.27;6.68;;;;;;;;;;5096816;28;20028;-77
2022/03/28 04:40:00;;;;;;;13.43;7.05;;;;;;;;;;5097309;28;20027;-77
2022/03/28 04:42:25;;;;;;;16.08;6.43;;;;;;;;;;5079880;28;20362;-77
2022/03/28 04:44:51;;;;;;;14.07;6.70;;;;;;;;;;5099189;28;20023;-78
2022/03/28 04:47:16;;;;;;;13.38;6.68;;;;;;;;;;5100227;28;20393;-76
2022/03/28 04:49:41;;;;;;;12.48;6.78;;;;;;;;;;5082388;28;20396;-76
2022/03/28 04:52:07;;;;;;;14.15;6.30;;;;;;;;;;5100745;28;20024;-76
2022/03/28 04:54:32;;;;;;;15.57;6.63;;;;;;;;;;5099819;28;20020;-78
2022/03/28 04:56:57;;;;;;;11.50;6.65;;;;;;;;;;5081033;28;20028;-76
2022/03/28 04:59:22;;;;;;;12.63;6.18;;;;;;;;;;5099115;28;20020;-76
2022/03/28 05:01:48;;;;;;;11.50;6.68;;;;;;;;;;5098304;28;20017;-77
2022/03/28 05:04:13;;;;;;;13.65;7.30;;;;;;;;;;5099666;28;20028;-76
2022/03/28 05:06:38;;;;;;;17.45;7.10;;;;;;;;;;5082003;28;20027;-77
2022/03/28 05:09:03;;;;;;;19.20;6.93;;;;;;;;;;5099844;28;20078;-77
2022/03/28 05:11:30;;;;;;;13.63;7.10;;;;;;;;;;5097784;28;20016;-76
2022/03/28 05:13:56;;;;;;;13.27;7.00;;;;;;;;;;5078813;28;20081;-77
2022/03/28 05:16:22;;;;;;;12.52;6.97;;;;;;;;;;5099045;28;20079;-76
2022/03/28 05:18:47;;;;;;;14.32;6.28;;;;;;;;;;5082197;28;20031;-76
2022/03/28 05:21:12;;;;;;;13.98;6.88;;;;;;;;;;5101417;28;20032;-78
2022/03/28 05:23:37;;;;;;;13.82;6.55;;;;;;;;;;5100972;28;20035;-76
2022/03/28 05:26:03;;;;;;;13.90;6.50;;;;;;;;;;5079407;28;20039;-76
2022/03/28 05:28:28;;;;;;;13.25;6.65;;;;;;;;;;5094728;28;20107;-77
2022/03/28 05:30:54;;;;;;;15.50;6.97;;;;;;;;;;5094965;28;20024;-77
2022/03/28 05:33:20;;;;;;;13.27;6.80;;;;;;;;;;5095144;28;20050;-77
2022/03/28 05:35:46;;;;;;;18.95;6.78;;;;;;;;;;5094894;28;20024;-76
2022/03/28 05:38:11;;;;;;;13.55;6.63;;;;;;;;;;5094123;28;20362;-77
2022/03/28 05:40:37;;;;;;;17.15;6.53;;;;;;;;;;5076049;28;20056;-76
2022/03/28 05:43:03;;;;;;;15.18;6.57;;;;;;;;;;5075828;28;20573;-77
2022/03/28 05:45:28;;;;;;;18.00;6.40;;;;;;;;;;5093886;28;20046;-76
2022/03/28 05:47:54;;;;;;;9.90;6.05;;;;;;;;;;5095061;28;20052;-80
2022/03/28 05:50:19;;;;;;;17.25;7.10;;;;;;;;;;5094030;28;20412;-76
2022/03/28 05:52:44;;;;;;;12.27;6.28;;;;;;;;;;5093270;28;20042;-74
2022/03/28 05:55:10;;;;;;;14.80;6.18;;;;;;;;;;5075210;28;20020;-75
2022/03/28 05:57:36;;;;;;;13.80;6.35;;;;;;;;;;5094968;28;20540;-81
2022/03/28 06:00:04;;;;;;;14.40;6.65;;;;;;;;;;5099466;28;20527;-78
2022/03/28 06:02:30;;;;;;;10.40;5.95;;;;;;;;;;5080328;28;20074;-77
2022/03/28 06:04:55;;;;;;;11.00;6.20;;;;;;;;;;5096156;28;20023;-78
2022/03/28 06:07:20;;;;;;;11.03;5.93;;;;;;;;;;5094800;28;20024;-77
2022/03/28 06:09:45;;;;;;;11.77;6.20;;;;;;;;;;5094082;28;20321;-77
2022/03/28 06:12:11;;;;;;;10.85;5.78;;;;;;;;;;5094124;28;20020;-77
2022/03/28 06:14:36;;;;;;;11.07;6.15;;;;;;;;;;5076597;28;20473;-77
2022/03/28 06:17:02;;;;;;;11.65;7.00;;;;;;;;;;5076870;28;20077;-77
2022/03/28 06:19:27;;;;;;;12.88;6.32;;;;;;;;;;5094236;28;20028;-76
2022/03/28 06:21:52;;;;;;;11.48;6.75;;;;;;;;;;5094390;28;20055;-78
2022/03/28 06:24:17;;;;;;;11.40;6.57;;;;;;;;;;5095288;28;20051;-77
2022/03/28 06:26:43;;;;;;;15.93;7.27;;;;;;;;;;5095021;28;20253;-78
2022/03/28 06:29:10;;;;;;;11.93;6.63;;;;;;;;;;5078487;28;20257;-77
2022/03/28 06:31:36;;;;;;;11.52;7.18;;;;;;;;;;5096375;28;20023;-78
2022/03/28 06:34:02;;;;;;;13.00;7.18;;;;;;;;;;5096640;28;20028;-78
2022/03/28 06:36:28;;;;;;;14.95;6.88;;;;;;;;;;5095112;28;20031;-78
2022/03/28 06:38:54;;;;;;;10.15;6.90;;;;;;;;;;5095768;28;20059;-78
2022/03/28 06:41:19;;;;;;;15.40;7.63;;;;;;;;;;5096818;28;20024;-78
2022/03/28 06:43:44;;;;;;;11.85;7.15;;;;;;;;;;5096019;28;20028;-78
2022/03/28 06:46:10;;;;;;;10.77;7.17;;;;;;;;;;5095541;28;20066;-77
2022/03/28 06:48:35;;;;;;;10.35;6.20;;;;;;;;;;5077628;28;20258;-78
2022/03/28 06:51:01;;;;;;;14.32;6.50;;;;;;;;;;5095592;28;20027;-78
2022/03/28 06:53:27;;;;;;;12.05;6.30;;;;;;;;;;5078765;28;20028;-77
2022/03/28 06:55:53;;;;;;;14.98;6.93;;;;;;;;;;5098945;28;20027;-77
2022/03/28 06:58:19;;;;;;;12.40;7.00;;;;;;;;;;5099272;28;20027;-77
2022/03/28 07:00:44;;;;;;;13.05;7.18;;;;;;;;;;5104647;28;20059;-77
2022/03/28 07:03:09;;;;;;;11.85;6.95;;;;;;;;;;5098765;28;20028;-77
2022/03/28 07:05:35;;;;;;;11.33;6.93;;;;;;;;;;5098615;28;20111;-77
2022/03/28 07:08:00;;;;;;;11.63;6.78;;;;;;;;;;5098586;28;20303;-77
2022/03/28 07:10:26;;;;;;;12.40;6.73;;;;;;;;;;5098260;28;20028;-78
2022/03/28 07:12:53;;;;;;;13.57;6.47;;;;;;;;;;5098875;28;20260;-78
2022/03/28 07:15:18;;;;;;;11.63;6.78;;;;;;;;;;5080777;28;20020;-77
2022/03/28 07:17:56;;;;;;;13.32;7.25;;;;;;;;;;5097952;28;20035;-77
2022/03/28 07:20:23;;;;;;;15.00;6.35;;;;;;;;;;5097643;28;20055;-77
2022/03/28 07:22:48;;;;;;;14.63;7.10;;;;;;;;;;5097833;28;20397;-77
2022/03/28 07:25:14;;;;;;;11.23;6.93;;;;;;;;;;5097926;28;20027;-78
2022/03/28 07:27:40;;;;;;;13.00;7.45;;;;;;;;;;5097582;28;20040;-77
2022/03/28 07:30:07;;;;;;;12.77;7.18;;;;;;;;;;5080288;28;20062;-78
2022/03/28 07:32:35;;;;;;;11.10;7.07;;;;;;;;;;5097652;28;20024;-78
2022/03/28 07:35:01;;;;;;;12.27;6.88;;;;;;;;;;5097274;28;20020;-77
2022/03/28 07:37:27;;;;;;;12.48;7.22;;;;;;;;;;5097085;28;20142;-78
2022/03/28 07:39:52;;;;;;;14.57;8.02;;;;;;;;;;5097354;28;20028;-78
2022/03/28 07:42:18;;;;;;;10.70;6.97;;;;;;;;;;5096768;28;20020;-77
2022/03/28 07:44:44;;;;;;;11.95;6.95;;;;;;;;;;5098454;28;20028;-78
2022/03/28 07:47:10;;;;;;;12.23;7.43;;;;;;;;;;5081388;28;20050;-77
2022/03/28 07:49:36;;;;;;;13.32;6.88;;;;;;;;;;5099537;28;20020;-78
2022/03/28 07:52:03;;;;;;;11.02;6.85;;;;;;;;;;5097635;28;20016;-79
2022/03/28 07:54:28;;;;;;;15.40;6.78;;;;;;;;;;5099019;28;20020;-77
2022/03/28 07:56:54;;;;;;;15.82;7.60;;;;;;;;;;5080374;28;20035;-77
2022/03/28 07:59:19;;;;;;;15.10;7.55;;;;;;;;;;5097104;28;20028;-77
2022/03/28 08:01:44;;;;;;;12.90;7.00;;;;;;;;;;5079214;28;20477;-78
2022/03/28 08:04:10;;;;;;;15.48;7.40;;;;;;;;;;5078905;28;20024;-77
2022/03/28 08:06:35;;;;;;;14.10;7.37;;;;;;;;;;5077846;28;20032;-78
2022/03/28 08:09:00;;;;;;;14.77;7.20;;;;;;;;;;5097515;28;20268;-77
2022/03/28 08:11:25;;;;;;;13.23;7.47;;;;;;;;;;5096233;28;20023;-77
2022/03/28 08:13:51;;;;;;;14.43;7.90;;;;;;;;;;5097639;28;20027;-78
2022/03/28 08:16:16;;;;;;;14.52;7.82;;;;;;;;;;5079331;28;20020;-77
2022/03/28 08:18:41;;;;;;;13.40;7.75;;;;;;;;;;5098613;28;20106;-77
2022/03/28 08:21:08;;;;;;;12.00;7.20;;;;;;;;;;5097591;28;20031;-77
2022/03/28 08:23:34;;;;;;;16.08;7.28;;;;;;;;;;5097942;28;20043;-77
2022/03/28 08:25:59;;;;;;;11.88;7.65;;;;;;;;;;5097366;28;20477;-77
2022/03/28 08:28:26;;;;;;;12.27;7.40;;;;;;;;;;5098822;28;20024;-77
2022/03/28 08:30:51;;;;;;;14.40;8.38;;;;;;;;;;5097586;28;20322;-77
2022/03/28 08:33:17;;;;;;;13.70;8.23;;;;;;;;;;5098151;28;20464;-77
2022/03/28 08:35:42;;;;;;;13.38;7.65;;;;;;;;;;5097622;28;20059;-78
2022/03/28 08:38:07;;;;;;;17.42;8.52;;;;;;;;;;5099367;28;20050;-77
2022/03/28 08:40:33;;;;;;;21.83;8.48;;;;;;;;;;5099818;28;20032;-79
2022/03/28 08:42:59;;;;;;;12.65;7.72;;;;;;;;;;5098479;28;20028;-78
2022/03/28 08:45:24;;;;;;;17.17;8.02;;;;;;;;;;5103083;28;20036;-78
2022/03/28 08:47:50;;;;;;;17.35;8.27;;;;;;;;;;5102511;28;20028;-78
2022/03/28 08:50:16;;;;;;;15.82;8.55;;;;;;;;;;5102171;28;20020;-78
2022/03/28 08:52:42;;;;;;;15.65;8.85;;;;;;;;;;5102148;28;20030;-78
2022/03/28 08:55:10;;;;;;;13.82;8.73;;;;;;;;;;5100489;28;20024;-78
2022/03/28 08:57:35;;;;;;;15.88;8.63;;;;;;;;;;5100209;28;20088;-77
2022/03/28 09:00:04;;;;;;;14.70;9.02;;;;;;;;;;5098105;28;20069;-78
2022/03/28 09:02:31;;;;;;;15.93;9.82;;;;;;;;;;5097548;28;20027;-78
2022/03/28 09:04:56;;;;;;;16.65;9.77;;;;;;;;;;5097386;28;20483;-77
2022/03/28 09:07:26;;;;;;;14.45;10.00;;;;;;;;;;5097098;28;20089;-77
2022/03/28 09:10:06;;;;;;;15.82;9.75;;;;;;;;;;5078773;28;20027;-77
2022/03/28 09:12:31;;;;;;;14.55;9.77;;;;;;;;;;5097308;28;20020;-77
2022/03/28 09:15:01;;;;;;;18.00;10.18;;;;;;;;;;5098818;28;20435;-77
2022/03/28 09:17:27;;;;;;;16.20;10.23;;;;;;;;;;5095862;28;20046;-77
2022/03/28 09:20:04;;;;;;;17.73;10.20;;;;;;;;;;5098302;28;20024;-77
2022/03/28 09:22:32;;;;;;;16.45;10.43;;;;;;;;;;5078439;28;20020;-77
2022/03/28 09:25:03;;;;;;;16.30;10.82;;;;;;;;;;5096066;28;20020;-77
2022/03/28 09:27:30;;;;;;;19.02;11.40;;;;;;;;;;5098203;28;20024;-77
2022/03/28 09:30:05;;;;;;;15.32;10.70;;;;;;;;;;5098574;28;20047;-77
2022/03/28 09:32:33;;;;;;;18.98;10.63;;;;;;;;;;5096891;28;20020;-77
2022/03/28 09:35:07;;;;;;;16.33;10.45;;;;;;;;;;5095805;28;20031;-78
2022/03/28 09:37:47;;;;;;;14.73;9.90;;;;;;;;;;5096391;28;20102;-77
2022/03/28 09:40:41;;;;;;;16.63;10.65;;;;;;;;;;5098216;28;20048;-77
2022/03/28 09:43:15;;;;;;;17.58;10.80;;;;;;;;;;5097274;28;20445;-78
2022/03/28 09:45:40;;;;;;;16.17;10.48;;;;;;;;;;5097214;28;20032;-78
2022/03/28 09:48:07;;;;;;;15.75;9.95;;;;;;;;;;5081096;28;20039;-78
2022/03/28 09:50:34;;;;;;;15.32;9.65;;;;;;;;;;5100424;28;20062;-78
2022/03/28 09:53:27;;;;;;;17.30;10.68;;;;;;;;;;5098216;28;20044;-79
2022/03/28 09:56:07;;;;;;;16.20;9.77;;;;;;;;;;5096469;28;20393;-77
2022/03/28 09:58:32;;;;;;;16.50;10.15;;;;;;;;;;5077866;28;20030;-78
2022/03/28 10:00:59;;;;;;;19.90;10.80;;;;;;;;;;5096179;28;20106;-78
2022/03/28 10:03:27;;;;;;;15.75;10.30;;;;;;;;;;5080402;28;20259;-79
2022/03/28 10:05:54;;;;;;;17.40;10.80;;;;;;;;;;5097812;28;20110;-78
2022/03/28 10:08:19;;;;;;;16.30;10.20;;;;;;;;;;5096288;28;20095;-78
2022/03/28 10:10:45;;;;;;;15.30;10.30;;;;;;;;;;5078698;28;20067;-77
2022/03/28 10:13:11;;;;;;;17.85;10.90;;;;;;;;;;5077526;28;20028;-78
2022/03/28 10:15:36;;;;;;;19.70;9.88;;;;;;;;;;5094931;28;20032;-79
2022/03/28 10:18:02;;;;;;;17.42;10.18;;;;;;;;;;5095399;28;20032;-78
2022/03/28 10:20:27;;;;;;;16.67;10.40;;;;;;;;;;5095308;28;20020;-78
2022/03/28 10:22:55;;;;;;;15.00;10.40;;;;;;;;;;5094572;28;20032;-77
2022/03/28 10:25:22;;;;;;;14.45;11.02;;;;;;;;;;5095534;28;20245;-78
2022/03/28 10:27:51;;;;;;;17.05;10.73;;;;;;;;;;5077220;28;20055;-78
2022/03/28 10:30:18;;;;;;;15.25;10.63;;;;;;;;;;5098554;28;20024;-77
2022/03/28 10:32:43;;;;;;;19.52;11.10;;;;;;;;;;5098986;28;20024;-77
2022/03/28 10:35:10;;;;;;;18.70;11.15;;;;;;;;;;5081762;28;20550;-77
2022/03/28 10:37:35;;;;;;;20.75;11.98;;;;;;;;;;5100183;28;20051;-77
2022/03/28 10:40:16;;;;;;;14.50;10.50;;;;;;;;;;5099640;28;20065;-78
2022/03/28 10:43:12;;;;;;;16.75;11.27;;;;;;;;;;5100744;28;20707;-77
2022/03/28 10:45:45;;;;;;;20.35;11.82;;;;;;;;;;5075972;28;20043;-77
2022/03/28 10:48:11;;;;;;;18.48;12.18;;;;;;;;;;5099056;28;20435;-77
2022/03/28 10:50:50;;;;;;;19.80;11.98;;;;;;;;;;5099586;28;20032;-77
2022/03/28 10:53:33;;;;;;;17.35;10.73;;;;;;;;;;5100763;28;20069;-78
2022/03/28 10:56:05;;;;;;;14.77;10.00;;;;;;;;;;5082496;28;20020;-78
2022/03/28 10:58:35;;;;;;;16.88;10.45;;;;;;;;;;5098548;28;20042;-78
2022/03/28 11:01:12;;;;;;;16.70;10.68;;;;;;;;;;5098911;28;20024;-78
2022/03/28 11:03:57;;;;;;;15.50;9.75;;;;;;;;;;5098802;28;20062;-77
2022/03/28 11:06:49;;;;;;;14.50;8.38;;;;;;;;;;5101064;28;20517;-76
2022/03/28 11:09:32;;;;;;;17.35;8.07;;;;;;;;;;5099838;28;20024;-77
2022/03/28 11:12:00;;;;;;;12.23;7.90;;;;;;;;;;5097136;28;20465;-77
2022/03/28 11:14:58;;;;;;;13.95;7.78;;;;;;;;;;5098925;28;20109;-77
2022/03/28 11:17:24;;;;;;;10.88;7.05;;;;;;;;;;5099290;28;20035;-78
2022/03/28 11:19:52;;;;;;;12.80;7.47;;;;;;;;;;5098949;28;20023;-77
2022/03/28 11:22:18;;;;;;;11.55;7.18;;;;;;;;;;5099769;28;20028;-77
2022/03/28 11:24:58;;;;;;;15.00;7.32;;;;;;;;;;5083593;28;20039;-77
2022/03/28 11:27:34;;;;;;;11.43;7.78;;;;;;;;;;5099308;28;20400;-78
2022/03/28 11:30:05;;;;;;;13.05;7.13;;;;;;;;;;5100581;28;20028;-78
2022/03/28 11:32:37;;;;;;;11.70;7.32;;;;;;;;;;5100625;28;20016;-78
2022/03/28 11:35:03;;;;;;;10.57;7.53;;;;;;;;;;5082536;28;20020;-78
2022/03/28 11:37:29;;;;;;;10.77;7.50;;;;;;;;;;5084693;28;20504;-76
2022/03/28 11:40:00;;;;;;;11.35;6.20;;;;;;;;;;5081588;28;20469;-78
2022/03/28 11:42:27;;;;;;;11.20;6.90;;;;;;;;;;5101580;28;20101;-78
2022/03/28 11:44:54;;;;;;;12.35;7.90;;;;;;;;;;5103427;28;20065;-77
2022/03/28 11:47:20;;;;;;;11.48;7.60;;;;;;;;;;5101253;28;20020;-77
2022/03/28 11:49:57;;;;;;;12.63;7.00;;;;;;;;;;5100498;28;20028;-78
2022/03/28 11:52:24;;;;;;;9.93;6.22;;;;;;;;;;5101169;28;20020;-78
2022/03/28 11:54:51;;;;;;;8.10;5.47;;;;;;;;;;5101055;28;20032;-78
2022/03/28 12:00:22;;;;;;;7.78;5.35;;;;;;;;;;5100207;28;20057;-79
2022/03/28 12:02:50;;;;;;;9.98;6.38;;;;;;;;;;5082884;28;20073;-77
2022/03/28 12:05:30;;;;;;;10.00;6.32;;;;;;;;;;5081264;28;20032;-76
2022/03/28 12:07:57;;;;;;;9.70;5.47;;;;;;;;;;5103507;28;20019;-78
2022/03/28 12:10:25;;;;;;;15.15;6.47;;;;;;;;;;5083796;28;20024;-78
2022/03/28 12:12:50;;;;;;;8.55;5.47;;;;;;;;;;5101334;28;20059;-78
2022/03/28 12:15:25;;;;;;;11.65;6.60;;;;;;;;;;5099380;28;20028;-78
2022/03/28 12:17:54;;;;;;;10.65;6.90;;;;;;;;;;5096364;28;20564;-77
2022/03/28 12:20:22;;;;;;;9.88;6.32;;;;;;;;;;5078285;28;20073;-78
2022/03/28 12:22:48;;;;;;;10.60;6.72;;;;;;;;;;5078594;28;20024;-78
2022/03/28 12:25:28;;;;;;;8.95;6.22;;;;;;;;;;5096382;28;20043;-78
2022/03/28 12:27:56;;;;;;;14.25;7.38;;;;;;;;;;5095750;28;20485;-78
2022/03/28 12:30:28;;;;;;;12.30;7.28;;;;;;;;;;5096961;28;20469;-78
2022/03/28 12:32:54;;;;;;;10.77;7.30;;;;;;;;;;5096924;28;20035;-78
2022/03/28 12:35:23;;;;;;;11.77;7.78;;;;;;;;;;5097177;28;20023;-76
2022/03/28 12:38:00;;;;;;;10.85;7.43;;;;;;;;;;5097013;28;20070;-78
2022/03/28 12:40:29;;;;;;;13.07;8.32;;;;;;;;;;5095782;28;20027;-77
2022/03/28 12:42:55;;;;;;;12.05;8.13;;;;;;;;;;5083404;28;20121;-77
2022/03/28 12:45:26;;;;;;;10.68;7.70;;;;;;;;;;5098983;28;20020;-77
2022/03/28 12:47:55;;;;;;;12.23;8.23;;;;;;;;;;5097456;28;20028;-78
2022/03/28 12:50:23;;;;;;;17.27;7.70;;;;;;;;;;5096570;28;20028;-78
2022/03/28 12:52:48;;;;;;;12.50;8.07;;;;;;;;;;5077066;28;20035;-77
2022/03/28 12:55:24;;;;;;;13.98;7.60;;;;;;;;;;5095446;28;20032;-76
2022/03/28 12:57:50;;;;;;;14.60;8.98;;;;;;;;;;5095824;28;20097;-77
2022/03/28 13:00:23;;;;;;;15.80;9.32;;;;;;;;;;5096249;28;20073;-77
2022/03/28 13:02:53;;;;;;;15.68;9.55;;;;;;;;;;5097077;28;20065;-78
2022/03/28 13:05:19;;;;;;;14.30;9.25;;;;;;;;;;5096258;28;20384;-76
2022/03/28 13:07:44;;;;;;;13.63;9.43;;;;;;;;;;5094887;28;20103;-77
2022/03/28 13:10:12;;;;;;;17.95;9.45;;;;;;;;;;5094874;28;20051;-77
2022/03/28 13:12:42;;;;;;;12.00;8.98;;;;;;;;;;5096306;28;20052;-77
2022/03/28 13:15:13;;;;;;;11.57;7.93;;;;;;;;;;5101952;28;20034;-77
2022/03/28 13:17:39;;;;;;;13.95;9.70;;;;;;;;;;5078821;28;20016;-77
2022/03/28 13:20:04;;;;;;;12.10;8.68;;;;;;;;;;5095317;28;20478;-77
2022/03/28 13:22:35;;;;;;;14.68;9.00;;;;;;;;;;5098443;28;20049;-78
2022/03/28 13:25:20;;;;;;;15.32;9.35;;;;;;;;;;5080713;28;20066;-78
2022/03/28 13:28:08;;;;;;;12.10;8.65;;;;;;;;;;5079917;28;20039;-78
2022/03/28 13:30:47;;;;;;;14.57;8.50;;;;;;;;;;5080175;28;20080;-78
2022/03/28 13:33:14;;;;;;;12.18;7.68;;;;;;;;;;5080885;28;20099;-78
2022/03/28 13:35:40;;;;;;;12.38;7.85;;;;;;;;;;5077511;28;20035;-77
2022/03/28 13:38:08;;;;;;;16.23;8.27;;;;;;;;;;5095050;28;20047;-77
2022/03/28 13:40:35;;;;;;;13.50;7.40;;;;;;;;;;5077044;28;20031;-78
2022/03/28 13:43:02;;;;;;;12.52;7.93;;;;;;;;;;5098115;28;20028;-77
2022/03/28 13:45:29;;;;;;;11.27;7.85;;;;;;;;;;5094638;28;20120;-79
2022/03/28 13:47:56;;;;;;;11.85;8.38;;;;;;;;;;5094582;28;20145;-77
2022/03/28 13:50:22;;;;;;;11.25;7.28;;;;;;;;;;5098153;28;20446;-78
2022/03/28 13:52:47;;;;;;;11.98;7.43;;;;;;;;;;5096648;28;20028;-78
2022/03/28 13:55:12;;;;;;;12.93;7.18;;;;;;;;;;5079020;28;20023;-78
2022/03/28 13:57:38;;;;;;;13.73;7.70;;;;;;;;;;5097646;28;20027;-78
2022/03/28 14:00:05;;;;;;;11.90;7.43;;;;;;;;;;5096270;28;20343;-78
2022/03/28 14:02:31;;;;;;;10.68;6.82;;;;;;;;;;5096022;28;20387;-78
2022/03/28 14:04:56;;;;;;;9.80;6.50;;;;;;;;;;5098746;28;20032;-78
2022/03/28 14:07:22;;;;;;;10.50;6.60;;;;;;;;;;5101676;28;20026;-78
2022/03/28 14:09:47;;;;;;;10.55;6.15;;;;;;;;;;5100947;28;20357;-77
2022/03/28 14:12:12;;;;;;;8.45;5.25;;;;;;;;;;5102116;28;20044;-78
2022/03/28 14:14:37;;;;;;;7.32;5.43;;;;;;;;;;5082231;28;20085;-79
2022/03/28 14:17:03;;;;;;;9.32;6.18;;;;;;;;;;5098852;28;20481;-78
2022/03/28 14:19:29;;;;;;;9.73;6.43;;;;;;;;;;5099029;28;20030;-77
2022/03/28 14:21:55;;;;;;;8.55;5.18;;;;;;;;;;5100004;28;20035;-77
2022/03/28 14:24:21;;;;;;;9.85;5.60;;;;;;;;;;5099518;28;20028;-77
2022/03/28 14:26:46;;;;;;;11.45;4.88;;;;;;;;;;5099161;28;20027;-77
2022/03/28 14:29:12;;;;;;;6.22;4.38;;;;;;;;;;5100039;28;20031;-77
2022/03/28 14:31:37;;;;;;;9.02;5.30;;;;;;;;;;5099892;28;20013;-77